Edmundston, Canada
Current Conditions -  °F | °C
As of 10:53 PM on Wednesday 22 Oct 2014 (Local Time) from KFVE Reporting Station
Clear Clear  
Wind Chill: 32°   Ceiling: Unl
Heat Index: 39°   Visibility: 10mi
Dew Point: 31°   Wind: 10mph
Humidity: 73%   Direction: 30°NNE
Pressure: 30.31"   Gusts: NA
Location:  47.37°N, 68.33°W
Report Text: KFVE 230153Z AUTO 03009KT 10SM CLR 04/M01 A3031 RMK AO2 SLP272 T00391006
Loading
Personal Weather Stations






























Interactive Weather Map
Tropical Storm Tracking
New forecast layout! Learn more

10-Day Weather Forecast

Advertisements
Track Severe Weather on mobile